Weather at Kaya88 Malaysia

Public forecast

Using degrees Celsius for public forecast. Weather courtesy of forecast.io.

Closest aviation weather report (METAR) to Kaya88 Malaysia

Closest report is Kuala Lumpur International Airport, 0.6 nm (1.1 km) SSE.

2024/05/24 06:00 (retrieved 32 minutes ago)

WMKK 240600Z VRB03KT 9999 FEW018 31/26 Q1007 NOSIG

Closest aviation forecast (TAF) to Kaya88 Malaysia

Closest forecast is Kuala Lumpur International Airport, 0.6 nm (1.1 km) SSE.

2024/05/24 06:12 (retrieved 20 minutes ago)

TAF WMKK 240500Z 2406/2512 02005KT 9999 FEW017CB PROB30 TEMPO 2409/2412 5000 SHRA FEW017CB SCT018